Time;durP1;ratioP1;P1;durP2;ratioP2;P2;SDS_P1;SDS_P2;PMS_P1;PMS_P2;Temp;Humidity;BMP_temperature;BMP_pressure;BME280_temperature;BME280_humidity;BME280_pressure;Samples;Min_cycle;Max_cycle;Signal;HPM_P1;HPM_P2
2022/01/26 00:00:29;;;;;;;30.32;16.80;;;;;;;-1.66;60.93;100676.44;1812922;78;21011;-60
2022/01/26 00:05:49;;;;;;;26.90;15.75;;;;;;;-1.60;60.76;100674.56;1815397;77;21163;-61
2022/01/26 00:08:15;;;;;;;29.27;16.10;;;;;;;-1.64;60.69;100665.21;1801029;78;21061;-60
2022/01/26 00:10:42;;;;;;;26.17;16.52;;;;;;;-1.65;60.81;100660.09;1822480;76;21070;-60
2022/01/26 00:13:08;;;;;;;28.02;17.42;;;;;;;-1.63;60.79;100663.47;1821395;76;21763;-60
2022/01/26 00:15:35;;;;;;;26.70;16.07;;;;;;;-1.65;60.76;100663.95;1816135;77;21555;-60
2022/01/26 00:18:01;;;;;;;27.30;17.30;;;;;;;-1.65;60.76;100663.95;1831029;78;21069;-60
2022/01/26 00:20:38;;;;;;;29.32;16.93;;;;;;;-1.63;60.86;100664.77;1811419;76;21004;-61
2022/01/26 00:23:06;;;;;;;31.42;17.25;;;;;;;-1.65;60.78;100662.22;1816246;77;21050;-61
2022/01/26 00:41:03;;;;;;;26.63;15.10;;;;;;;-1.51;60.98;100644.66;1786832;78;21077;-60
2022/01/26 00:43:26;;;;;;;28.30;16.75;;;;;;;-1.50;60.92;100647.66;1796995;78;21195;-60
2022/01/26 00:45:56;;;;;;;26.85;16.73;;;;;;;-1.53;61.04;100635.25;1750267;79;21113;-60
2022/01/26 00:48:22;;;;;;;27.50;16.12;;;;;;;-1.53;61.04;100635.25;1711740;82;21547;-60
2022/01/26 00:50:52;;;;;;;26.75;17.45;;;;;;;-1.53;60.77;100624.92;1720998;82;21580;-60
2022/01/26 00:53:23;;;;;;;30.65;19.07;;;;;;;-1.53;60.77;100624.92;1725603;81;21556;-60
2022/01/26 00:55:49;;;;;;;39.80;18.75;;;;;;;-1.54;61.03;100625.38;1720459;81;21211;-60
2022/01/26 00:58:15;;;;;;;30.45;17.02;;;;;;;-1.53;61.01;100622.34;1718077;81;20992;-61
2022/01/26 01:00:41;;;;;;;24.23;16.10;;;;;;;-1.48;61.14;100629.52;1726552;82;21102;-60
2022/01/26 01:03:08;;;;;;;30.68;18.48;;;;;;;-1.48;61.14;100629.52;1722855;82;21103;-61
2022/01/26 01:05:42;;;;;;;34.45;17.37;;;;;;;-1.48;61.15;100626.10;1705792;82;21067;-60
2022/01/26 01:08:10;;;;;;;29.18;17.25;;;;;;;-1.51;61.13;100623.17;1722986;81;21130;-60
2022/01/26 01:10:33;;;;;;;27.22;16.50;;;;;;;-1.51;61.13;100623.17;1724644;81;21109;-60
2022/01/26 01:13:00;;;;;;;27.95;17.27;;;;;;;-1.48;61.52;100620.48;1777896;79;21031;-60
2022/01/26 01:15:29;;;;;;;29.37;17.67;;;;;;;-1.42;61.53;100615.17;1787058;79;21021;-60
2022/01/26 01:18:09;;;;;;;25.90;16.65;;;;;;;-1.39;61.36;100607.81;1735714;81;21066;-60
2022/01/26 01:30:56;;;;;;;27.27;17.00;;;;;;;-1.42;61.43;100604.02;1782038;79;21042;-60
2022/01/26 01:33:24;;;;;;;27.98;15.65;;;;;;;-1.43;61.48;100594.56;1772794;79;21092;-60
2022/01/26 01:35:49;;;;;;;25.32;15.50;;;;;;;-1.39;61.51;100591.87;1761016;79;21034;-60
2022/01/26 01:38:18;;;;;;;33.85;17.40;;;;;;;-1.39;61.48;100586.70;1793795;78;21205;-59
2022/01/26 01:40:47;;;;;;;26.40;17.87;;;;;;;-1.41;61.47;100580.74;1809797;76;21536;-60
2022/01/26 01:43:14;;;;;;;28.15;17.92;;;;;;;-1.45;61.46;100573.12;1794659;78;21023;-60
2022/01/26 01:45:46;;;;;;;28.17;17.32;;;;;;;-1.45;61.55;100567.95;1801098;77;21069;-59
2022/01/26 01:48:15;;;;;;;28.85;17.30;;;;;;;-1.43;61.51;100559.72;1779434;78;21055;-59
2022/01/26 01:50:42;;;;;;;28.23;17.57;;;;;;;-1.44;61.47;100563.20;1808877;78;21050;-60
2022/01/26 01:53:11;;;;;;;31.27;17.17;;;;;;;-1.43;61.50;100554.55;1807912;77;21040;-60
2022/01/26 01:55:39;;;;;;;29.42;16.60;;;;;;;-1.44;61.74;100550.30;1812504;78;21011;-60
2022/01/26 01:58:06;;;;;;;24.47;16.12;;;;;;;-1.41;61.64;100556.64;1808553;77;21216;-61
2022/01/26 02:00:33;;;;;;;31.07;18.00;;;;;;;-1.42;61.66;100549.80;1810864;78;21019;-61
2022/01/26 02:03:00;;;;;;;30.50;18.25;;;;;;;-1.41;62.00;100551.48;1802289;77;21003;-61
2022/01/26 02:05:26;;;;;;;31.15;18.27;;;;;;;-1.37;61.73;100548.78;1769102;79;21015;-61
2022/01/26 02:07:53;;;;;;;28.00;18.20;;;;;;;-1.33;61.70;100558.57;1752598;80;21074;-61
2022/01/26 02:10:22;;;;;;;36.42;18.70;;;;;;;-1.36;61.66;100559.52;1751913;80;21055;-60
2022/01/26 02:12:51;;;;;;;29.40;18.75;;;;;;;-1.33;61.76;100562.44;1745862;80;21044;-61
2022/01/26 02:15:22;;;;;;;27.02;17.73;;;;;;;-1.33;61.90;100552.98;1751935;80;21037;-60
2022/01/26 02:20:59;;;;;;;32.10;19.12;;;;;;;-1.27;61.87;100542.08;1793598;78;21021;-60
2022/01/26 02:56:11;;;;;;;39.55;17.23;;;;;;;-1.47;61.81;100547.34;1779080;78;21066;-59
2022/01/26 03:01:43;;;;;;;31.48;17.62;;;;;;;-1.48;61.78;100548.22;1794053;78;21007;-59
2022/01/26 03:04:11;;;;;;;30.65;18.37;;;;;;;-1.46;61.94;100550.77;1825658;77;21097;-59
2022/01/26 03:06:40;;;;;;;31.52;18.73;;;;;;;-1.39;62.32;100550.56;1813492;77;21924;-60
2022/01/26 03:09:05;;;;;;;32.78;19.37;;;;;;;-1.39;62.32;100550.56;1807864;77;21024;-60
2022/01/26 03:11:31;;;;;;;31.77;18.92;;;;;;;-1.30;62.41;100548.16;1813559;76;21635;-59
2022/01/26 03:14:07;;;;;;;30.17;18.35;;;;;;;-1.24;62.30;100548.00;1809281;76;21117;-59
2022/01/26 03:16:37;;;;;;;33.67;17.95;;;;;;;-1.21;62.08;100553.08;1808831;77;21063;-58
2022/01/26 03:21:38;;;;;;;29.20;18.80;;;;;;;-1.18;61.76;100553.42;1812283;77;20955;-59
2022/01/26 03:30:26;;;;;;;32.70;21.00;;;;;;;-1.12;62.29;100551.96;1796465;77;21257;-59
2022/01/26 03:32:41;;;;;;;31.42;18.52;;;;;;;-1.07;62.07;100557.84;1795531;76;21065;-59
2022/01/26 03:34:29;;;;;;;33.20;20.08;;;;;;;-1.09;62.00;100556.17;1792579;78;21077;-59
2022/01/26 03:37:07;;;;;;;32.40;19.17;;;;;;;-1.13;62.20;100553.70;1809784;78;21022;-59
2022/01/26 03:39:29;;;;;;;28.83;16.97;;;;;;;-1.13;62.20;100553.70;1809617;78;21003;-58
2022/01/26 03:42:05;;;;;;;30.82;19.00;;;;;;;-1.10;62.27;100554.05;1822315;78;21081;-59
2022/01/26 03:44:31;;;;;;;31.97;19.65;;;;;;;-1.09;62.33;100552.30;1826627;76;21512;-59
2022/01/26 03:46:57;;;;;;;29.10;18.75;;;;;;;-1.01;62.34;100558.96;1825342;77;21540;-59
2022/01/26 03:49:24;;;;;;;42.30;20.60;;;;;;;-1.01;62.34;100558.96;1794759;78;21010;-59
2022/01/26 03:51:50;;;;;;;36.00;20.68;;;;;;;-0.99;62.37;100566.67;1815668;76;21037;-59
2022/01/26 03:54:18;;;;;;;34.03;19.75;;;;;;;-0.97;62.37;100564.42;1823619;77;21141;-59
2022/01/26 03:56:45;;;;;;;34.20;19.98;;;;;;;-0.97;62.37;100564.42;1792621;78;21682;-59
2022/01/26 03:59:13;;;;;;;29.25;19.37;;;;;;;-0.94;62.64;100563.05;1813098;77;21040;-58
2022/01/26 04:01:39;;;;;;;31.37;19.55;;;;;;;-0.84;62.60;100561.47;1826158;77;21117;-58
2022/01/26 04:04:06;;;;;;;26.33;17.87;;;;;;;-0.83;62.52;100561.88;1817351;77;21062;-59
2022/01/26 04:06:33;;;;;;;32.17;18.82;;;;;;;-0.82;62.38;100557.12;1817199;77;21142;-59
2022/01/26 04:09:01;;;;;;;32.38;18.85;;;;;;;-0.87;62.15;100557.71;1818368;76;21524;-58
2022/01/26 04:11:46;;;;;;;28.80;17.67;;;;;;;-0.87;62.15;100557.71;1812676;77;20984;-59
2022/01/26 04:14:12;;;;;;;32.05;18.95;;;;;;;-0.88;62.38;100561.17;1813487;77;21062;-58
2022/01/26 04:16:39;;;;;;;28.00;18.48;;;;;;;-0.92;62.53;100559.55;1810237;77;21043;-59
2022/01/26 04:19:06;;;;;;;33.10;21.17;;;;;;;-0.94;62.64;100554.46;1766946;79;21859;-59
2022/01/26 04:21:50;;;;;;;37.60;20.20;;;;;;;-0.91;62.69;100551.77;1815151;78;21008;-59
2022/01/26 04:24:53;;;;;;;32.88;19.15;;;;;;;-0.87;62.72;100555.96;1761348;77;21027;-59
2022/01/26 04:26:45;;;;;;;33.90;21.30;;;;;;;-0.85;62.75;100552.05;1769491;79;21062;-59
2022/01/26 04:29:08;;;;;;;35.20;20.37;;;;;;;-0.84;62.79;100554.58;1788769;78;21567;-59
2022/01/26 04:31:32;;;;;;;34.05;21.60;;;;;;;-0.81;62.60;100554.92;1796890;76;21504;-59
2022/01/26 04:33:58;;;;;;;35.23;21.30;;;;;;;-0.81;62.60;100554.92;1815364;78;21027;-59
2022/01/26 04:36:34;;;;;;;37.88;21.07;;;;;;;-0.79;62.96;100550.13;1820238;76;21070;-59
2022/01/26 04:38:58;;;;;;;35.73;21.57;;;;;;;-0.80;62.92;100548.87;1815685;76;21515;-60
2022/01/26 04:41:29;;;;;;;39.15;23.45;;;;;;;-0.82;63.08;100545.04;1803517;77;21015;-60
2022/01/26 04:43:54;;;;;;;38.25;21.93;;;;;;;-0.80;63.22;100547.58;1819760;76;21192;-60
2022/01/26 04:46:19;;;;;;;37.00;20.20;;;;;;;-0.75;63.39;100560.75;1823346;76;21047;-60
2022/01/26 04:48:45;;;;;;;37.35;23.10;;;;;;;-0.72;63.49;100553.36;1812014;76;20996;-60
2022/01/26 04:51:11;;;;;;;35.23;22.20;;;;;;;-0.68;63.46;100550.23;1815199;76;21768;-59
2022/01/26 04:53:38;;;;;;;35.95;21.12;;;;;;;-0.62;63.65;100553.94;1813000;76;21051;-60
2022/01/26 04:56:05;;;;;;;37.23;23.07;;;;;;;-0.62;63.65;100553.94;1811923;78;21714;-59
2022/01/26 04:58:32;;;;;;;35.60;21.73;;;;;;;-0.57;63.60;100558.05;1781259;77;21066;-59
2022/01/26 05:00:58;;;;;;;33.75;22.70;;;;;;;-0.53;63.56;100563.14;1813605;76;21019;-59
2022/01/26 05:03:25;;;;;;;34.20;23.90;;;;;;;-0.49;63.54;100560.84;1812587;77;21125;-60
2022/01/26 05:05:51;;;;;;;39.95;22.70;;;;;;;-0.48;63.59;100556.08;1785814;78;21098;-61
2022/01/26 05:08:17;;;;;;;37.55;21.87;;;;;;;-0.45;63.54;100562.00;1787237;76;21904;-60
2022/01/26 05:10:45;;;;;;;35.90;21.85;;;;;;;-0.47;63.61;100562.92;1810208;77;21061;-59
2022/01/26 05:13:14;;;;;;;33.78;20.72;;;;;;;-0.44;63.62;100562.83;1811601;77;21607;-57
2022/01/26 05:15:41;;;;;;;34.33;21.45;;;;;;;-0.43;63.49;100564.08;1778436;77;20992;-60
2022/01/26 05:18:11;;;;;;;38.13;21.15;;;;;;;-0.39;63.68;100566.11;1811450;77;21469;-60
2022/01/26 05:20:37;;;;;;;33.65;20.05;;;;;;;-0.35;63.66;100568.16;1814527;77;21019;-60
2022/01/26 05:23:04;;;;;;;37.80;22.35;;;;;;;-0.35;63.55;100566.86;1809963;77;21015;-60
2022/01/26 05:25:30;;;;;;;40.17;23.95;;;;;;;-0.37;63.48;100573.38;1797637;77;21058;-60
2022/01/26 05:27:57;;;;;;;42.48;24.77;;;;;;;-0.36;63.56;100578.95;1813207;76;21148;-58
2022/01/26 05:30:24;;;;;;;40.98;25.30;;;;;;;-0.31;64.07;100575.77;1808698;78;21015;-60
2022/01/26 05:32:51;;;;;;;51.18;25.77;;;;;;;-0.23;64.34;100573.79;1790796;78;21118;-59
2022/01/26 05:35:17;;;;;;;41.08;25.17;;;;;;;-0.17;64.70;100575.78;1814045;78;20984;-59
2022/01/26 05:37:44;;;;;;;44.95;25.37;;;;;;;-0.13;64.95;100581.27;1794883;78;21001;-59
2022/01/26 05:40:12;;;;;;;42.62;23.98;;;;;;;-0.10;65.01;100580.72;1811417;76;21012;-60
2022/01/26 05:42:39;;;;;;;37.83;23.38;;;;;;;-0.09;65.10;100578.50;1823488;76;21019;-59
2022/01/26 05:45:15;;;;;;;44.27;26.07;;;;;;;-0.08;65.30;100591.85;1806643;77;21003;-59
2022/01/26 05:47:36;;;;;;;34.70;21.75;;;;;;;-0.07;65.60;100588.80;1807497;77;20983;-60
2022/01/26 05:50:03;;;;;;;43.98;25.05;;;;;;;-0.10;65.81;100585.89;1814638;76;21491;-59
2022/01/26 05:52:30;;;;;;;35.23;22.02;;;;;;;-0.12;65.88;100593.28;1823604;78;21007;-60
2022/01/26 05:54:56;;;;;;;40.92;24.23;;;;;;;-0.13;66.17;100595.49;1820869;78;20987;-60
2022/01/26 05:57:23;;;;;;;44.08;27.10;;;;;;;-0.18;66.29;100587.88;1813330;77;21607;-60
2022/01/26 05:59:52;;;;;;;37.42;23.65;;;;;;;-0.24;66.48;100591.94;1814832;78;21519;-60
2022/01/26 06:02:18;;;;;;;35.28;23.47;;;;;;;-0.29;66.63;100589.48;1820139;77;20955;-59
2022/01/26 06:04:44;;;;;;;41.20;24.43;;;;;;;-0.30;66.70;100593.41;1819845;76;20956;-59
2022/01/26 06:07:10;;;;;;;38.88;24.25;;;;;;;-0.33;66.89;100595.67;1816396;76;21100;-60
2022/01/26 06:09:37;;;;;;;35.68;22.52;;;;;;;-0.35;66.91;100595.30;1797174;77;21207;-60
2022/01/26 06:12:06;;;;;;;34.15;21.62;;;;;;;-0.38;66.91;100598.84;1816993;76;21104;-59
2022/01/26 06:14:33;;;;;;;41.25;22.32;;;;;;;-0.45;66.97;100593.47;1814277;77;21066;-58
2022/01/26 06:16:59;;;;;;;39.40;21.57;;;;;;;-0.45;67.10;100596.06;1804985;77;21165;-61
2022/01/26 06:19:26;;;;;;;37.00;21.73;;;;;;;-0.44;67.34;100595.15;1802345;78;21077;-59
2022/01/26 06:21:53;;;;;;;34.38;20.95;;;;;;;-0.45;67.46;100603.36;1815553;77;21419;-62
2022/01/26 06:24:19;;;;;;;35.23;19.67;;;;;;;-0.48;67.32;100600.03;1816858;77;21475;-58
2022/01/26 06:26:46;;;;;;;34.75;22.00;;;;;;;-0.49;67.49;100596.58;1807746;77;21082;-60
2022/01/26 06:29:13;;;;;;;34.08;20.20;;;;;;;-0.49;67.52;100600.91;1781447;78;21043;-60
2022/01/26 06:31:41;;;;;;;37.15;21.27;;;;;;;-0.48;67.55;100602.61;1788778;76;21096;-59
2022/01/26 06:34:10;;;;;;;32.35;18.37;;;;;;;-0.54;67.21;100611.84;1748134;79;21828;-58
2022/01/26 06:36:42;;;;;;;35.98;19.30;;;;;;;-0.54;67.21;100611.84;1777009;78;20980;-58
2022/01/26 06:39:07;;;;;;;30.17;19.05;;;;;;;-0.67;67.22;100623.84;1813821;76;21042;-59
2022/01/26 06:41:34;;;;;;;28.27;18.00;;;;;;;-0.67;67.22;100623.84;1810548;76;21078;-58
2022/01/26 06:44:08;;;;;;;30.85;16.95;;;;;;;-0.71;67.32;100614.93;1813266;76;20992;-59
2022/01/26 06:46:42;;;;;;;30.88;18.30;;;;;;;-0.73;67.39;100622.72;1815440;77;21151;-59
2022/01/26 06:49:28;;;;;;;28.98;17.48;;;;;;;-0.73;67.47;100624.02;1813274;76;21074;-58
2022/01/26 06:51:28;;;;;;;31.48;16.95;;;;;;;-0.72;67.34;100625.72;1821280;76;21062;-59
2022/01/26 06:56:16;;;;;;;28.87;17.85;;;;;;;-0.74;67.40;100628.77;1821024;76;22720;-59
2022/01/26 06:58:43;;;;;;;39.60;20.75;;;;;;;-0.84;67.47;100633.80;1798732;78;21014;-58
2022/01/26 07:01:09;;;;;;;41.75;20.27;;;;;;;-0.85;67.55;100642.47;1803781;77;23242;-59
2022/01/26 07:03:36;;;;;;;35.75;20.37;;;;;;;-0.87;67.48;100639.92;1794663;78;21081;-59
2022/01/26 07:06:02;;;;;;;34.98;18.37;;;;;;;-0.87;67.51;100642.97;1804024;78;21013;-58
2022/01/26 07:08:29;;;;;;;32.33;20.50;;;;;;;-0.90;67.50;100651.63;1799672;77;22405;-59
2022/01/26 07:10:56;;;;;;;36.10;20.40;;;;;;;-0.90;67.65;100653.38;1765604;77;21614;-60
2022/01/26 07:13:25;;;;;;;34.58;21.33;;;;;;;-0.90;67.65;100653.38;1768461;79;21167;-60
2022/01/26 07:23:50;;;;;;;37.13;19.82;;;;;;;-0.74;67.82;100676.58;1773794;78;21028;-61
2022/01/26 07:26:16;;;;;;;38.42;20.17;;;;;;;-0.74;67.82;100676.58;1805747;77;21091;-61
2022/01/26 07:28:43;;;;;;;40.80;20.60;;;;;;;-0.73;67.47;100670.98;1799064;78;21030;-60
2022/01/26 07:31:09;;;;;;;36.48;20.15;;;;;;;-0.76;67.47;100678.36;1800227;78;21015;-61
2022/01/26 07:33:38;;;;;;;34.30;20.12;;;;;;;-0.77;67.35;100680.56;1804979;78;21677;-60
2022/01/26 07:36:05;;;;;;;31.68;18.85;;;;;;;-0.83;67.81;100697.52;1802297;78;21031;-60
2022/01/26 07:38:32;;;;;;;33.00;19.73;;;;;;;-0.83;67.81;100697.52;1796254;77;21098;-60
2022/01/26 07:40:59;;;;;;;35.03;20.27;;;;;;;-0.82;67.72;100690.19;1802121;77;21102;-59
2022/01/26 07:43:25;;;;;;;35.40;19.87;;;;;;;-0.78;67.42;100693.07;1799680;77;20986;-60
2022/01/26 07:45:52;;;;;;;36.23;19.15;;;;;;;-0.77;67.22;100691.73;1799963;77;21058;-59
2022/01/26 07:48:18;;;;;;;32.28;19.98;;;;;;;-0.76;66.99;100700.33;1802015;78;21046;-59
2022/01/26 07:50:45;;;;;;;37.50;19.45;;;;;;;-0.76;66.99;100700.33;1806976;78;21067;-59
2022/01/26 07:53:15;;;;;;;37.03;18.77;;;;;;;-0.72;66.99;100696.78;1765737;79;21779;-59
2022/01/26 07:55:40;;;;;;;35.35;19.92;;;;;;;-0.72;66.99;100696.78;1748468;79;21062;-58
2022/01/26 07:58:08;;;;;;;30.40;18.50;;;;;;;-0.71;67.06;100706.21;1769486;79;21067;-59
2022/01/26 08:00:35;;;;;;;35.15;20.45;;;;;;;-0.71;66.66;100698.46;1768294;78;21581;-59
2022/01/26 08:03:01;;;;;;;29.50;17.98;;;;;;;-0.71;66.66;100698.46;1772421;78;21236;-59
2022/01/26 08:05:28;;;;;;;31.75;17.50;;;;;;;-0.66;66.64;100704.34;1767059;78;21187;-59
2022/01/26 08:07:55;;;;;;;30.92;17.90;;;;;;;-0.68;66.87;100716.47;1763779;78;21434;-60
2022/01/26 08:10:22;;;;;;;26.27;15.78;;;;;;;-0.68;66.87;100716.47;1762273;79;21580;-59
2022/01/26 08:12:49;;;;;;;30.35;18.12;;;;;;;-0.67;66.67;100721.19;1771365;78;21273;-58
2022/01/26 08:15:16;;;;;;;36.85;18.77;;;;;;;-0.64;67.06;100725.85;1752392;80;21139;-60
2022/01/26 08:17:44;;;;;;;29.57;17.52;;;;;;;-0.57;66.80;100718.77;1770999;78;21102;-59
2022/01/26 08:20:11;;;;;;;31.15;17.20;;;;;;;-0.55;66.56;100726.03;1765860;80;21075;-59
2022/01/26 08:22:39;;;;;;;27.77;17.90;;;;;;;-0.52;66.42;100719.91;1768478;80;21473;-58
2022/01/26 08:25:07;;;;;;;27.50;16.93;;;;;;;-0.50;66.24;100729.33;1774155;78;21007;-58
2022/01/26 08:27:40;;;;;;;27.45;16.40;;;;;;;-0.46;66.30;100733.96;1769265;78;21062;-58
2022/01/26 08:30:09;;;;;;;26.50;15.88;;;;;;;-0.44;66.07;100728.30;1745379;80;21090;-59
2022/01/26 08:32:33;;;;;;;34.18;18.17;;;;;;;-0.35;65.38;100732.34;1778444;78;22372;-59
2022/01/26 08:35:00;;;;;;;30.92;17.10;;;;;;;-0.35;65.38;100732.34;1766382;79;21042;-59
2022/01/26 08:37:26;;;;;;;25.85;15.15;;;;;;;-0.33;65.01;100728.84;1741289;79;21077;-60
2022/01/26 08:39:53;;;;;;;27.17;15.25;;;;;;;-0.34;64.46;100742.64;1769320;78;23235;-59
2022/01/26 08:42:20;;;;;;;26.10;14.68;;;;;;;-0.34;64.46;100742.64;1761635;78;21054;-59
2022/01/26 08:44:48;;;;;;;23.10;15.35;;;;;;;-0.30;64.87;100733.05;1769998;80;21077;-59
2022/01/26 08:47:15;;;;;;;22.22;13.03;;;;;;;-0.30;64.87;100733.05;1777548;78;21010;-59
2022/01/26 08:49:41;;;;;;;20.85;13.05;;;;;;;-0.21;64.06;100740.10;1748870;80;21063;-61
2022/01/26 08:52:08;;;;;;;27.98;14.58;;;;;;;-0.21;64.06;100740.10;1767770;79;22346;-60
2022/01/26 08:54:35;;;;;;;23.75;14.95;;;;;;;-0.15;63.93;100731.33;1776234;78;21045;-59
2022/01/26 08:57:02;;;;;;;22.07;13.83;;;;;;;-0.10;63.69;100735.05;1769534;79;21554;-59
2022/01/26 08:59:29;;;;;;;19.50;11.78;;;;;;;-0.03;63.54;100738.71;1797273;77;21058;-60
2022/01/26 09:01:55;;;;;;;25.52;13.83;;;;;;;0.01;63.47;100737.33;1803638;77;21004;-60
2022/01/26 09:04:22;;;;;;;19.77;11.45;;;;;;;0.02;62.96;100735.99;1793318;78;21084;-59
2022/01/26 09:06:54;;;;;;;21.37;12.68;;;;;;;0.04;62.39;100727.73;1801842;77;21059;-58
2022/01/26 09:09:20;;;;;;;21.65;14.18;;;;;;;0.01;62.53;100738.17;1798446;77;21074;-60
2022/01/26 09:11:50;;;;;;;23.98;12.55;;;;;;;0.01;62.53;100738.17;1769077;79;21082;-60
2022/01/26 09:14:22;;;;;;;21.15;12.35;;;;;;;0.03;62.43;100730.36;1797705;77;21069;-59
2022/01/26 09:16:52;;;;;;;30.27;15.60;;;;;;;0.03;62.26;100731.66;1730150;80;21086;-60
2022/01/26 09:19:31;;;;;;;20.57;12.65;;;;;;;0.03;62.28;100733.78;1799290;79;21132;-60
2022/01/26 09:22:10;;;;;;;20.95;12.78;;;;;;;0.04;62.47;100736.78;1804333;77;21023;-61
2022/01/26 09:24:39;;;;;;;17.92;12.10;;;;;;;0.03;62.38;100732.48;1790862;78;21192;-61
2022/01/26 09:27:06;;;;;;;22.50;13.62;;;;;;;0.07;62.50;100734.11;1799602;77;21527;-60
2022/01/26 09:29:34;;;;;;;26.02;15.10;;;;;;;0.12;62.70;100732.22;1793624;78;21981;-61
2022/01/26 09:32:01;;;;;;;25.15;12.80;;;;;;;0.20;62.35;100732.42;1800993;77;21072;-60
2022/01/26 09:34:29;;;;;;;21.70;12.60;;;;;;;0.28;62.00;100731.73;1797715;77;21321;-58
2022/01/26 09:36:57;;;;;;;25.80;12.33;;;;;;;0.30;61.84;100735.98;1794208;78;21051;-59
2022/01/26 09:39:23;;;;;;;24.18;10.70;;;;;;;0.29;61.79;100731.69;1794169;77;21525;-59
2022/01/26 09:41:51;;;;;;;22.30;12.40;;;;;;;0.29;62.11;100734.73;1771340;77;21967;-57
2022/01/26 09:44:19;;;;;;;18.17;11.60;;;;;;;0.41;62.08;100737.38;1796244;78;21054;-59
2022/01/26 09:46:46;;;;;;;23.35;12.68;;;;;;;0.41;62.08;100737.38;1799176;77;21030;-59
2022/01/26 09:49:16;;;;;;;21.68;12.93;;;;;;;0.45;62.01;100739.80;1765779;79;21059;-61
2022/01/26 09:51:43;;;;;;;19.80;12.82;;;;;;;0.50;61.55;100737.06;1796526;77;21061;-59
2022/01/26 09:54:14;;;;;;;21.40;12.07;;;;;;;0.54;61.26;100739.52;1796663;77;21232;-59
2022/01/26 09:56:41;;;;;;;21.57;12.45;;;;;;;0.58;61.38;100738.13;1774089;79;21039;-59
2022/01/26 09:59:08;;;;;;;19.98;11.85;;;;;;;0.60;61.18;100735.86;1794877;77;21504;-60
2022/01/26 10:01:45;;;;;;;28.20;14.03;;;;;;;0.60;61.18;100735.86;1797954;77;21188;-60
2022/01/26 10:04:24;;;;;;;18.80;11.53;;;;;;;0.63;61.56;100734.47;1798757;78;21036;-59
2022/01/26 10:07:21;;;;;;;23.50;12.13;;;;;;;0.66;61.30;100738.27;1802059;78;22582;-60
2022/01/26 10:10:02;;;;;;;16.80;10.85;;;;;;;0.66;61.30;100738.27;1803201;77;21430;-58
2022/01/26 10:18:09;;;;;;;20.77;10.95;;;;;;;0.65;61.52;100747.38;1765505;79;21063;-60
2022/01/26 10:20:42;;;;;;;17.70;10.32;;;;;;;0.58;61.70;100740.25;1795733;77;21003;-59
2022/01/26 10:23:13;;;;;;;18.12;11.95;;;;;;;0.48;62.11;100731.94;1760704;79;21113;-59
2022/01/26 10:25:42;;;;;;;20.45;11.28;;;;;;;0.43;62.13;100731.23;1800622;78;21019;-60
2022/01/26 10:28:13;;;;;;;20.60;11.10;;;;;;;0.43;62.13;100731.23;1768313;79;21063;-59
2022/01/26 10:30:45;;;;;;;18.87;9.35;;;;;;;0.44;62.41;100736.83;1763138;79;21732;-60
2022/01/26 10:33:16;;;;;;;21.52;10.55;;;;;;;0.43;62.31;100733.83;1794881;78;21035;-58
2022/01/26 10:35:43;;;;;;;20.37;11.05;;;;;;;0.45;62.12;100728.60;1762942;77;21320;-59
2022/01/26 10:38:10;;;;;;;21.30;10.68;;;;;;;0.53;62.30;100735.22;1803672;78;20943;-59
2022/01/26 10:40:38;;;;;;;16.87;8.98;;;;;;;0.57;62.07;100734.66;1773629;78;20983;-59
2022/01/26 10:43:11;;;;;;;17.50;10.72;;;;;;;0.54;62.00;100725.27;1763471;79;21097;-61
2022/01/26 10:45:54;;;;;;;14.65;8.78;;;;;;;0.54;62.00;100725.27;1766470;79;21112;-60
2022/01/26 10:49:05;;;;;;;18.12;10.98;;;;;;;0.51;62.39;100735.72;1795583;77;21030;-60
2022/01/26 10:53:50;;;;;;;15.95;9.05;;;;;;;0.41;62.24;100733.50;1765277;79;20956;-60
2022/01/26 10:56:15;;;;;;;16.57;8.23;;;;;;;0.38;62.39;100733.13;1758404;79;20931;-60
2022/01/26 10:58:41;;;;;;;15.23;8.23;;;;;;;0.43;62.41;100745.48;1772282;78;21042;-59
2022/01/26 11:01:08;;;;;;;13.30;8.63;;;;;;;0.39;62.35;100737.42;1766171;78;21096;-60
2022/01/26 11:03:34;;;;;;;15.60;8.93;;;;;;;0.39;62.35;100737.42;1769272;78;21015;-58
2022/01/26 11:06:03;;;;;;;17.30;8.65;;;;;;;0.41;62.41;100738.22;1776953;79;21056;-60
2022/01/26 11:08:30;;;;;;;13.13;8.08;;;;;;;0.38;61.99;100735.72;1772677;78;21105;-59
2022/01/26 11:10:57;;;;;;;13.93;7.15;;;;;;;0.36;61.49;100737.06;1774627;78;21741;-60
2022/01/26 11:13:29;;;;;;;15.08;6.25;;;;;;;0.39;60.99;100734.84;1742791;79;21066;-60
2022/01/26 11:16:12;;;;;;;12.82;6.12;;;;;;;0.37;61.11;100732.75;1772582;78;21097;-60
2022/01/26 11:18:52;;;;;;;10.58;6.25;;;;;;;0.34;60.92;100740.16;1745526;79;21101;-60
2022/01/26 11:21:37;;;;;;;18.50;6.85;;;;;;;0.33;60.33;100742.79;1771117;79;21061;-59
2022/01/26 11:24:22;;;;;;;11.80;5.77;;;;;;;0.33;60.33;100742.79;1769939;78;21141;-59
2022/01/26 11:26:50;;;;;;;13.48;7.30;;;;;;;0.37;60.65;100741.81;1771755;79;21089;-59
2022/01/26 11:29:32;;;;;;;13.18;6.53;;;;;;;0.29;60.37;100736.87;1769034;79;21026;-59
2022/01/26 11:32:13;;;;;;;12.30;6.08;;;;;;;0.33;60.58;100747.51;1768408;78;21089;-60
2022/01/26 11:34:38;;;;;;;11.97;6.33;;;;;;;0.35;60.78;100741.86;1742535;80;21508;-60
2022/01/26 11:37:12;;;;;;;10.65;6.20;;;;;;;0.36;60.12;100743.53;1771511;78;22073;-59
2022/01/26 11:45:15;;;;;;;13.30;5.65;;;;;;;0.44;59.10;100747.19;1769934;79;21563;-60
2022/01/26 11:48:11;;;;;;;11.63;6.15;;;;;;;0.38;58.88;100743.95;1739125;80;21749;-60
2022/01/26 11:50:42;;;;;;;10.82;5.55;;;;;;;0.36;58.36;100733.64;1772880;78;21161;-59
2022/01/26 11:53:11;;;;;;;10.45;5.30;;;;;;;0.34;58.63;100732.39;1772608;78;21027;-59
2022/01/26 11:55:51;;;;;;;13.58;5.80;;;;;;;0.35;58.57;100735.39;1739452;79;21069;-59
2022/01/26 11:58:34;;;;;;;11.63;5.50;;;;;;;0.36;58.74;100728.45;1791978;78;21097;-59
2022/01/26 12:01:22;;;;;;;11.12;5.90;;;;;;;0.35;58.77;100731.51;1789815;78;21516;-59
2022/01/26 12:04:12;;;;;;;14.93;6.75;;;;;;;0.35;58.77;100731.51;1760043;79;20972;-58
2022/01/26 12:06:43;;;;;;;11.53;5.75;;;;;;;0.38;58.44;100727.95;1767937;79;21066;-59
2022/01/26 12:09:08;;;;;;;11.85;6.40;;;;;;;0.33;58.59;100728.09;1764673;79;21066;-59
2022/01/26 12:11:35;;;;;;;9.95;4.85;;;;;;;0.27;58.60;100736.50;1791665;79;21069;-59
2022/01/26 12:14:06;;;;;;;11.93;5.90;;;;;;;0.25;58.19;100735.71;1790768;79;21054;-59
2022/01/26 12:16:40;;;;;;;8.88;5.22;;;;;;;0.27;58.74;100736.08;1787035;79;21555;-60
2022/01/26 12:19:24;;;;;;;13.15;5.80;;;;;;;0.28;58.48;100742.09;1769912;79;21449;-59
2022/01/26 12:35:54;;;;;;;8.60;4.28;;;;;;;0.45;56.52;100760.51;1787019;79;21484;-59
2022/01/26 12:38:31;;;;;;;7.85;4.62;;;;;;;0.37;56.33;100753.46;1726402;81;21105;-59
2022/01/26 12:43:47;;;;;;;9.90;4.17;;;;;;;0.40;56.42;100757.22;1739070;81;21057;-59
2022/01/26 12:46:25;;;;;;;9.07;3.90;;;;;;;0.34;55.55;100747.92;1751836;80;21133;-59
2022/01/26 12:48:55;;;;;;;6.78;3.37;;;;;;;0.35;55.46;100755.23;1754878;79;21963;-59
2022/01/26 12:51:22;;;;;;;9.83;3.47;;;;;;;0.36;54.29;100762.11;1730515;80;21735;-58
2022/01/26 12:53:56;;;;;;;11.45;3.77;;;;;;;0.34;53.69;100756.14;1747593;79;21279;-58
2022/01/26 12:56:28;;;;;;;10.48;3.87;;;;;;;0.36;53.96;100760.81;1755486;80;21199;-59
2022/01/26 12:59:01;;;;;;;8.13;3.75;;;;;;;0.34;53.11;100758.73;1773210;78;21054;-60
2022/01/26 13:01:27;;;;;;;6.85;3.15;;;;;;;0.34;53.10;100755.69;1773154;78;21063;-59
2022/01/26 13:04:00;;;;;;;8.68;3.72;;;;;;;0.35;52.50;100757.39;1722988;80;21548;-59
2022/01/26 13:06:29;;;;;;;8.03;3.95;;;;;;;0.34;52.41;100749.21;1748102;80;21125;-60
2022/01/26 13:08:57;;;;;;;9.38;3.62;;;;;;;0.35;52.22;100759.11;1744817;80;21137;-59
2022/01/26 13:11:26;;;;;;;7.03;2.80;;;;;;;0.35;51.70;100761.70;1776754;78;21638;-60
2022/01/26 13:14:14;;;;;;;6.75;3.08;;;;;;;0.33;51.20;100757.86;1746164;80;21050;-59
2022/01/26 13:16:55;;;;;;;7.45;3.00;;;;;;;0.30;51.20;100757.12;1769717;79;21054;-59
2022/01/26 13:19:40;;;;;;;6.22;2.40;;;;;;;0.31;51.24;100758.83;1771844;80;21133;-59